PWSweather.com
Personal Weather Stations
Station Observations
PRATO
PratoIT 59100

PratoIT 59100

Lat: 43.8956799, Lon: 11.0845155

Elevation: 164

Station Type: Davis Vantage Vue

http://www.meteoprato.it

High Low Average
Temperature 58.2°F14.6°C 50.4°F10.2°C 54.4°F12.4°C
Dew Point 55.6°F13.1°C 48.5°F9.2°C 52.1°F11.2°C
Winds 6.7 mph 10.8 kmh Calm Calm 1.0 mph E1.6 kmh E
Wind Gusts 23.0 mph37.0 kmh -- 3.0 mph4.8 kmh
Humidity 95% 84% 92%
Pressure 29.84 in1010.5 mb 29.57 in1001.4 mb -
Precipitation 1.11 in28.2 mm - -
Hour Temp Dew Point Humidity Winds Wind Gusts Pressure Precip Precip Rate Daily Precip Total
12:00 AM 50.5°F10.3°C 48.6°F9.2°C 93% Calm Calm -- 29.84 in1010.5 mb 0.00 in0.0 mm 0.00 in0.0 mm 0.00 in0.0 mm
12:05 AM 50.4°F10.2°C 48.5°F9.2°C 93% Calm Calm -- 29.84 in1010.5 mb 0.00 in0.0 mm 0.00 in0.0 mm 0.00 in0.0 mm
12:10 AM 50.4°F10.2°C 48.5°F9.2°C 93% Calm Calm -- 29.84 in1010.5 mb 0.00 in0.0 mm 0.00 in0.0 mm 0.00 in0.0 mm
12:15 AM 50.4°F10.2°C 48.5°F9.2°C 93% Calm Calm -- 29.84 in1010.5 mb 0.00 in0.0 mm 0.00 in0.0 mm 0.00 in0.0 mm
12:20 AM 50.5°F10.3°C 48.6°F9.2°C 93% Calm Calm -- 29.83 in1010.2 mb 0.00 in0.0 mm 0.00 in0.0 mm 0.00 in0.0 mm
12:25 AM 50.6°F10.3°C 48.9°F9.4°C 94% Calm Calm -- 29.83 in1010.2 mb 0.00 in0.0 mm 0.00 in0.0 mm 0.00 in0.0 mm
12:30 AM 50.7°F10.4°C 49.0°F9.4°C 94% Calm Calm -- 29.83 in1010.2 mb 0.00 in0.0 mm 0.00 in0.0 mm 0.00 in0.0 mm
12:35 AM 50.7°F10.4°C 48.7°F9.3°C 93% Calm Calm -- 29.84 in1010.5 mb 0.00 in0.0 mm 0.00 in0.0 mm 0.00 in0.0 mm
12:40 AM 50.7°F10.4°C 49.0°F9.4°C 94% Calm Calm -- 29.84 in1010.5 mb 0.00 in0.0 mm 0.00 in0.0 mm 0.00 in0.0 mm
12:45 AM 51.0°F10.6°C 49.3°F9.6°C 94% Calm Calm -- 29.84 in1010.5 mb 0.00 in0.0 mm 0.00 in0.0 mm 0.00 in0.0 mm
12:50 AM 51.1°F10.6°C 49.4°F9.7°C 94% Calm Calm -- 29.84 in1010.5 mb 0.00 in0.0 mm 0.00 in0.0 mm 0.00 in0.0 mm
12:55 AM 51.1°F10.6°C 49.1°F9.5°C 93% Calm Calm -- 29.84 in1010.5 mb 0.00 in0.0 mm 0.00 in0.0 mm 0.00 in0.0 mm
01:00 AM 51.1°F10.6°C 49.1°F9.5°C 93% Calm Calm -- 29.83 in1010.2 mb 0.00 in0.0 mm 0.00 in0.0 mm 0.00 in0.0 mm
01:05 AM 50.9°F10.5°C 48.9°F9.4°C 93% Calm Calm -- 29.82 in1009.8 mb 0.00 in0.0 mm 0.00 in0.0 mm 0.00 in0.0 mm
01:10 AM 50.7°F10.4°C 48.7°F9.3°C 93% Calm Calm -- 29.83 in1010.2 mb 0.00 in0.0 mm 0.00 in0.0 mm 0.00 in0.0 mm
01:15 AM 50.7°F10.4°C 48.7°F9.3°C 93% Calm Calm -- 29.82 in1009.8 mb 0.00 in0.0 mm 0.00 in0.0 mm 0.00 in0.0 mm
01:20 AM 50.9°F10.5°C 49.2°F9.6°C 94% Calm Calm -- 29.82 in1009.8 mb 0.00 in0.0 mm 0.00 in0.0 mm 0.00 in0.0 mm
01:25 AM 51.1°F10.6°C 49.4°F9.7°C 94% Calm Calm -- 29.82 in1009.8 mb 0.00 in0.0 mm 0.00 in0.0 mm 0.00 in0.0 mm
01:30 AM 51.3°F10.7°C 49.6°F9.8°C 94% Calm Calm -- 29.82 in1009.8 mb 0.00 in0.0 mm 0.00 in0.0 mm 0.00 in0.0 mm
01:35 AM 51.4°F10.8°C 49.7°F9.8°C 94% Calm Calm -- 29.82 in1009.8 mb 0.00 in0.0 mm 0.00 in0.0 mm 0.00 in0.0 mm
01:40 AM 51.6°F10.9°C 49.9°F9.9°C 94% Calm Calm -- 29.82 in1009.8 mb 0.00 in0.0 mm 0.00 in0.0 mm 0.00 in0.0 mm
01:45 AM 51.7°F10.9°C 50.0°F10.0°C 94% Calm Calm -- 29.82 in1009.8 mb 0.00 in0.0 mm 0.00 in0.0 mm 0.00 in0.0 mm
01:50 AM 51.7°F10.9°C 50.0°F10.0°C 94% Calm Calm -- 29.82 in1009.8 mb 0.00 in0.0 mm 0.00 in0.0 mm 0.00 in0.0 mm
01:55 AM 51.8°F11.0°C 50.1°F10.1°C 94% Calm Calm -- 29.81 in1009.5 mb 0.00 in0.0 mm 0.00 in0.0 mm 0.00 in0.0 mm
02:00 AM 51.9°F11.1°C 50.2°F10.1°C 94% Calm Calm -- 29.81 in1009.5 mb 0.00 in0.0 mm 0.00 in0.0 mm 0.00 in0.0 mm
02:05 AM 52.1°F11.2°C 50.4°F10.2°C 94% Calm Calm -- 29.81 in1009.5 mb 0.00 in0.0 mm 0.00 in0.0 mm 0.00 in0.0 mm
02:10 AM 52.2°F11.2°C 50.5°F10.3°C 94% Calm Calm -- 29.81 in1009.5 mb 0.00 in0.0 mm 0.00 in0.0 mm 0.00 in0.0 mm
02:15 AM 52.2°F11.2°C 50.2°F10.1°C 93% Calm Calm -- 29.81 in1009.5 mb 0.00 in0.0 mm 0.00 in0.0 mm 0.00 in0.0 mm
02:20 AM 52.0°F11.1°C 50.0°F10.0°C 93% Calm Calm -- 29.81 in1009.5 mb 0.00 in0.0 mm 0.00 in0.0 mm 0.00 in0.0 mm
02:25 AM 51.9°F11.1°C 49.9°F9.9°C 93% Calm Calm -- 29.81 in1009.5 mb 0.00 in0.0 mm 0.00 in0.0 mm 0.00 in0.0 mm
02:30 AM 51.8°F11.0°C 49.8°F9.9°C 93% Calm Calm -- 29.80 in1009.1 mb 0.00 in0.0 mm 0.00 in0.0 mm 0.00 in0.0 mm
02:35 AM 51.7°F10.9°C 49.7°F9.8°C 93% Calm Calm -- 29.80 in1009.1 mb 0.00 in0.0 mm 0.00 in0.0 mm 0.00 in0.0 mm
02:40 AM 51.7°F10.9°C 49.7°F9.8°C 93% Calm Calm -- 29.81 in1009.5 mb 0.00 in0.0 mm 0.00 in0.0 mm 0.00 in0.0 mm
02:45 AM 51.8°F11.0°C 49.8°F9.9°C 93% Calm Calm -- 29.81 in1009.5 mb 0.00 in0.0 mm 0.00 in0.0 mm 0.00 in0.0 mm
02:50 AM 51.8°F11.0°C 49.8°F9.9°C 93% Calm Calm -- 29.81 in1009.5 mb 0.00 in0.0 mm 0.00 in0.0 mm 0.00 in0.0 mm
02:55 AM 51.8°F11.0°C 50.1°F10.1°C 94% Calm Calm -- 29.80 in1009.1 mb 0.00 in0.0 mm 0.00 in0.0 mm 0.00 in0.0 mm
03:00 AM 51.9°F11.1°C 50.2°F10.1°C 94% Calm Calm -- 29.80 in1009.1 mb 0.00 in0.0 mm 0.00 in0.0 mm 0.00 in0.0 mm
03:05 AM 52.0°F11.1°C 50.3°F10.2°C 94% Calm Calm -- 29.80 in1009.1 mb 0.00 in0.0 mm 0.00 in0.0 mm 0.00 in0.0 mm
03:10 AM 52.0°F11.1°C 50.3°F10.2°C 94% Calm Calm -- 29.80 in1009.1 mb 0.00 in0.0 mm 0.00 in0.0 mm 0.00 in0.0 mm
03:15 AM 52.1°F11.2°C 50.4°F10.2°C 94% Calm Calm -- 29.79 in1008.8 mb 0.00 in0.0 mm 0.00 in0.0 mm 0.00 in0.0 mm
03:20 AM 52.2°F11.2°C 50.5°F10.3°C 94% Calm Calm -- 29.79 in1008.8 mb 0.00 in0.0 mm 0.00 in0.0 mm 0.00 in0.0 mm
03:25 AM 52.2°F11.2°C 50.5°F10.3°C 94% Calm Calm -- 29.79 in1008.8 mb 0.00 in0.0 mm 0.00 in0.0 mm 0.00 in0.0 mm
03:30 AM 52.2°F11.2°C 50.5°F10.3°C 94% Calm Calm -- 29.79 in1008.8 mb 0.00 in0.0 mm 0.00 in0.0 mm 0.00 in0.0 mm
03:35 AM 52.1°F11.2°C 50.1°F10.1°C 93% Calm Calm -- 29.79 in1008.8 mb 0.00 in0.0 mm 0.00 in0.0 mm 0.00 in0.0 mm
03:40 AM 51.9°F11.1°C 49.9°F9.9°C 93% Calm Calm -- 29.79 in1008.8 mb 0.00 in0.0 mm 0.00 in0.0 mm 0.00 in0.0 mm
03:45 AM 51.8°F11.0°C 49.8°F9.9°C 93% Calm Calm -- 29.79 in1008.8 mb 0.00 in0.0 mm 0.00 in0.0 mm 0.00 in0.0 mm
03:50 AM 51.6°F10.9°C 49.6°F9.8°C 93% Calm Calm -- 29.79 in1008.8 mb 0.00 in0.0 mm 0.00 in0.0 mm 0.00 in0.0 mm
03:55 AM 51.5°F10.8°C 49.5°F9.7°C 93% Calm Calm -- 29.78 in1008.5 mb 0.00 in0.0 mm 0.00 in0.0 mm 0.00 in0.0 mm
04:00 AM 51.5°F10.8°C 49.8°F9.9°C 94% Calm Calm -- 29.79 in1008.8 mb 0.00 in0.0 mm 0.00 in0.0 mm 0.00 in0.0 mm
04:05 AM 51.4°F10.8°C 49.7°F9.8°C 94% Calm Calm -- 29.78 in1008.5 mb 0.00 in0.0 mm 0.00 in0.0 mm 0.00 in0.0 mm
04:10 AM 51.4°F10.8°C 49.7°F9.8°C 94% Calm Calm -- 29.78 in1008.5 mb 0.00 in0.0 mm 0.00 in0.0 mm 0.00 in0.0 mm
04:15 AM 51.5°F10.8°C 49.8°F9.9°C 94% Calm Calm -- 29.78 in1008.5 mb 0.00 in0.0 mm 0.00 in0.0 mm 0.00 in0.0 mm
04:20 AM 51.6°F10.9°C 49.9°F9.9°C 94% Calm Calm -- 29.79 in1008.8 mb 0.00 in0.0 mm 0.00 in0.0 mm 0.00 in0.0 mm
04:25 AM 51.5°F10.8°C 49.8°F9.9°C 94% Calm Calm -- 29.79 in1008.8 mb 0.00 in0.0 mm 0.00 in0.0 mm 0.00 in0.0 mm
04:30 AM 51.4°F10.8°C 49.4°F9.7°C 93% Calm Calm -- 29.79 in1008.8 mb 0.00 in0.0 mm 0.00 in0.0 mm 0.00 in0.0 mm
04:35 AM 51.2°F10.7°C 49.5°F9.7°C 94% Calm Calm -- 29.78 in1008.5 mb 0.00 in0.0 mm 0.00 in0.0 mm 0.00 in0.0 mm
04:40 AM 51.1°F10.6°C 49.4°F9.7°C 94% Calm Calm -- 29.78 in1008.5 mb 0.00 in0.0 mm 0.00 in0.0 mm 0.00 in0.0 mm
04:45 AM 51.1°F10.6°C 49.4°F9.7°C 94% Calm Calm -- 29.78 in1008.5 mb 0.00 in0.0 mm 0.00 in0.0 mm 0.00 in0.0 mm
04:50 AM 51.0°F10.6°C 49.3°F9.6°C 94% Calm Calm -- 29.78 in1008.5 mb 0.00 in0.0 mm 0.00 in0.0 mm 0.00 in0.0 mm
04:55 AM 51.1°F10.6°C 49.4°F9.7°C 94% Calm Calm -- 29.78 in1008.5 mb 0.00 in0.0 mm 0.00 in0.0 mm 0.00 in0.0 mm
05:00 AM 51.1°F10.6°C 49.4°F9.7°C 94% Calm Calm -- 29.77 in1008.1 mb 0.00 in0.0 mm 0.00 in0.0 mm 0.00 in0.0 mm
05:05 AM 51.2°F10.7°C 49.5°F9.7°C 94% Calm Calm -- 29.77 in1008.1 mb 0.00 in0.0 mm 0.00 in0.0 mm 0.00 in0.0 mm
05:10 AM 51.3°F10.7°C 49.6°F9.8°C 94% Calm Calm -- 29.78 in1008.5 mb 0.00 in0.0 mm 0.00 in0.0 mm 0.00 in0.0 mm
05:15 AM 51.3°F10.7°C 49.6°F9.8°C 94% Calm Calm -- 29.77 in1008.1 mb 0.00 in0.0 mm 0.00 in0.0 mm 0.00 in0.0 mm
05:20 AM 51.4°F10.8°C 49.7°F9.8°C 94% Calm Calm -- 29.77 in1008.1 mb 0.00 in0.0 mm 0.00 in0.0 mm 0.00 in0.0 mm
05:25 AM 51.4°F10.8°C 49.7°F9.8°C 94% Calm Calm -- 29.77 in1008.1 mb 0.00 in0.0 mm 0.00 in0.0 mm 0.00 in0.0 mm
05:30 AM 51.4°F10.8°C 49.7°F9.8°C 94% Calm Calm -- 29.77 in1008.1 mb 0.00 in0.0 mm 0.00 in0.0 mm 0.00 in0.0 mm
05:35 AM 51.5°F10.8°C 49.8°F9.9°C 94% Calm Calm -- 29.77 in1008.1 mb 0.00 in0.0 mm 0.00 in0.0 mm 0.00 in0.0 mm
05:40 AM 51.6°F10.9°C 49.9°F9.9°C 94% Calm Calm -- 29.77 in1008.1 mb 0.00 in0.0 mm 0.00 in0.0 mm 0.00 in0.0 mm
05:45 AM 51.8°F11.0°C 50.4°F10.2°C 95% Calm Calm -- 29.77 in1008.1 mb 0.00 in0.0 mm 0.00 in0.0 mm 0.00 in0.0 mm
05:50 AM 51.9°F11.1°C 50.2°F10.1°C 94% Calm Calm -- 29.76 in1007.8 mb 0.00 in0.0 mm 0.00 in0.0 mm 0.00 in0.0 mm
05:55 AM 51.9°F11.1°C 50.2°F10.1°C 94% Calm Calm -- 29.76 in1007.8 mb 0.00 in0.0 mm 0.00 in0.0 mm 0.00 in0.0 mm
06:00 AM 51.9°F11.1°C 50.2°F10.1°C 94% Calm Calm -- 29.76 in1007.8 mb 0.00 in0.0 mm 0.00 in0.0 mm 0.00 in0.0 mm
06:05 AM 51.9°F11.1°C 50.2°F10.1°C 94% Calm Calm -- 29.76 in1007.8 mb 0.00 in0.0 mm 0.00 in0.0 mm 0.00 in0.0 mm
06:10 AM 51.9°F11.1°C 50.2°F10.1°C 94% Calm Calm -- 29.76 in1007.8 mb 0.00 in0.0 mm 0.00 in0.0 mm 0.00 in0.0 mm
06:15 AM 52.0°F11.1°C 50.6°F10.3°C 95% Calm Calm -- 29.76 in1007.8 mb 0.00 in0.0 mm 0.00 in0.0 mm 0.00 in0.0 mm
06:20 AM 52.1°F11.2°C 50.4°F10.2°C 94% Calm Calm -- 29.76 in1007.8 mb 0.00 in0.0 mm 0.00 in0.0 mm 0.00 in0.0 mm
06:25 AM 52.0°F11.1°C 50.3°F10.2°C 94% Calm Calm -- 29.76 in1007.8 mb 0.00 in0.0 mm 0.00 in0.0 mm 0.00 in0.0 mm
06:30 AM 51.8°F11.0°C 50.1°F10.1°C 94% Calm Calm -- 29.76 in1007.8 mb 0.00 in0.0 mm 0.00 in0.0 mm 0.00 in0.0 mm
06:35 AM 51.7°F10.9°C 50.0°F10.0°C 94% Calm Calm -- 29.76 in1007.8 mb 0.00 in0.0 mm 0.00 in0.0 mm 0.00 in0.0 mm
06:40 AM 51.6°F10.9°C 49.9°F9.9°C 94% Calm Calm -- 29.76 in1007.8 mb 0.00 in0.0 mm 0.00 in0.0 mm 0.00 in0.0 mm
06:45 AM 51.6°F10.9°C 49.9°F9.9°C 94% Calm Calm -- 29.76 in1007.8 mb 0.00 in0.0 mm 0.00 in0.0 mm 0.00 in0.0 mm
06:50 AM 51.6°F10.9°C 49.9°F9.9°C 94% Calm Calm -- 29.76 in1007.8 mb 0.00 in0.0 mm 0.00 in0.0 mm 0.00 in0.0 mm
06:55 AM 51.6°F10.9°C 49.9°F9.9°C 94% Calm Calm -- 29.76 in1007.8 mb 0.00 in0.0 mm 0.00 in0.0 mm 0.00 in0.0 mm
07:00 AM 51.5°F10.8°C 49.8°F9.9°C 94% Calm Calm -- 29.76 in1007.8 mb 0.00 in0.0 mm 0.00 in0.0 mm 0.00 in0.0 mm
07:05 AM 51.3°F10.7°C 49.6°F9.8°C 94% Calm Calm -- 29.76 in1007.8 mb 0.00 in0.0 mm 0.00 in0.0 mm 0.00 in0.0 mm
07:10 AM 51.1°F10.6°C 49.4°F9.7°C 94% Calm Calm -- 29.76 in1007.8 mb 0.00 in0.0 mm 0.00 in0.0 mm 0.00 in0.0 mm
07:15 AM 51.0°F10.6°C 49.3°F9.6°C 94% Calm Calm -- 29.76 in1007.8 mb 0.00 in0.0 mm 0.00 in0.0 mm 0.00 in0.0 mm
07:20 AM 51.1°F10.6°C 49.7°F9.8°C 95% Calm Calm -- 29.76 in1007.8 mb 0.00 in0.0 mm 0.00 in0.0 mm 0.00 in0.0 mm
07:25 AM 51.2°F10.7°C 49.8°F9.9°C 95% Calm Calm -- 29.76 in1007.8 mb 0.00 in0.0 mm 0.00 in0.0 mm 0.00 in0.0 mm
07:30 AM 51.2°F10.7°C 49.5°F9.7°C 94% Calm Calm -- 29.76 in1007.8 mb 0.00 in0.0 mm 0.00 in0.0 mm 0.00 in0.0 mm
07:35 AM 51.3°F10.7°C 49.9°F9.9°C 95% Calm Calm -- 29.76 in1007.8 mb 0.00 in0.0 mm 0.00 in0.0 mm 0.00 in0.0 mm
07:40 AM 51.2°F10.7°C 49.5°F9.7°C 94% Calm Calm -- 29.76 in1007.8 mb 0.00 in0.0 mm 0.00 in0.0 mm 0.00 in0.0 mm
07:45 AM 51.2°F10.7°C 49.5°F9.7°C 94% Calm Calm -- 29.76 in1007.8 mb 0.00 in0.0 mm 0.00 in0.0 mm 0.00 in0.0 mm
07:50 AM 51.2°F10.7°C 49.8°F9.9°C 95% Calm Calm -- 29.76 in1007.8 mb 0.00 in0.0 mm 0.00 in0.0 mm 0.00 in0.0 mm
07:55 AM 51.2°F10.7°C 49.5°F9.7°C 94% Calm Calm -- 29.76 in1007.8 mb 0.00 in0.0 mm 0.00 in0.0 mm 0.00 in0.0 mm
08:00 AM 51.2°F10.7°C 49.8°F9.9°C 95% Calm Calm -- 29.76 in1007.8 mb 0.00 in0.0 mm 0.00 in0.0 mm 0.00 in0.0 mm
08:05 AM 51.2°F10.7°C 49.8°F9.9°C 95% Calm Calm -- 29.76 in1007.8 mb 0.00 in0.0 mm 0.00 in0.0 mm 0.00 in0.0 mm
08:10 AM 51.2°F10.7°C 49.8°F9.9°C 95% Calm Calm -- 29.76 in1007.8 mb 0.00 in0.0 mm 0.00 in0.0 mm 0.00 in0.0 mm
08:15 AM 51.2°F10.7°C 49.8°F9.9°C 95% Calm Calm -- 29.76 in1007.8 mb 0.00 in0.0 mm 0.00 in0.0 mm 0.00 in0.0 mm
08:20 AM 51.4°F10.8°C 50.0°F10.0°C 95% Calm Calm -- 29.76 in1007.8 mb 0.00 in0.0 mm 0.00 in0.0 mm 0.00 in0.0 mm
08:25 AM 51.6°F10.9°C 50.2°F10.1°C 95% Calm Calm -- 29.75 in1007.5 mb 0.00 in0.0 mm 0.00 in0.0 mm 0.00 in0.0 mm
08:30 AM 51.8°F11.0°C 50.4°F10.2°C 95% Calm Calm -- 29.75 in1007.5 mb 0.00 in0.0 mm 0.00 in0.0 mm 0.00 in0.0 mm
08:35 AM 51.9°F11.1°C 50.5°F10.3°C 95% Calm Calm -- 29.75 in1007.5 mb 0.00 in0.0 mm 0.00 in0.0 mm 0.00 in0.0 mm
08:40 AM 52.2°F11.2°C 50.8°F10.4°C 95% Calm Calm -- 29.76 in1007.8 mb 0.00 in0.0 mm 0.00 in0.0 mm 0.00 in0.0 mm
08:45 AM 52.3°F11.3°C 50.9°F10.5°C 95% Calm Calm -- 29.75 in1007.5 mb 0.00 in0.0 mm 0.00 in0.0 mm 0.00 in0.0 mm
08:50 AM 52.5°F11.4°C 51.1°F10.6°C 95% Calm Calm -- 29.75 in1007.5 mb 0.00 in0.0 mm 0.00 in0.0 mm 0.00 in0.0 mm
08:55 AM 52.5°F11.4°C 50.8°F10.4°C 94% Calm Calm -- 29.75 in1007.5 mb 0.00 in0.0 mm 0.00 in0.0 mm 0.00 in0.0 mm
09:00 AM 52.4°F11.3°C 50.7°F10.4°C 94% Calm Calm -- 29.75 in1007.5 mb 0.00 in0.0 mm 0.00 in0.0 mm 0.00 in0.0 mm
09:05 AM 52.5°F11.4°C 51.1°F10.6°C 95% Calm Calm -- 29.75 in1007.5 mb 0.00 in0.0 mm 0.00 in0.0 mm 0.00 in0.0 mm
09:10 AM 52.6°F11.4°C 50.9°F10.5°C 94% Calm Calm -- 29.75 in1007.5 mb 0.00 in0.0 mm 0.00 in0.0 mm 0.00 in0.0 mm
09:15 AM 52.6°F11.4°C 50.9°F10.5°C 94% Calm Calm -- 29.75 in1007.5 mb 0.00 in0.0 mm 0.00 in0.0 mm 0.00 in0.0 mm
09:20 AM 52.7°F11.5°C 51.0°F10.6°C 94% Calm Calm -- 29.73 in1006.8 mb 0.00 in0.0 mm 0.00 in0.0 mm 0.00 in0.0 mm
09:25 AM 52.9°F11.6°C 51.5°F10.8°C 95% Calm Calm -- 29.73 in1006.8 mb 0.00 in0.0 mm 0.00 in0.0 mm 0.00 in0.0 mm
09:30 AM 53.0°F11.7°C 51.6°F10.9°C 95% Calm Calm -- 29.73 in1006.8 mb 0.00 in0.0 mm 0.00 in0.0 mm 0.00 in0.0 mm
09:35 AM 53.2°F11.8°C 51.5°F10.8°C 94% Calm Calm -- 29.73 in1006.8 mb 0.00 in0.0 mm 0.00 in0.0 mm 0.00 in0.0 mm
09:40 AM 53.3°F11.8°C 51.6°F10.9°C 94% Calm Calm -- 29.73 in1006.8 mb 0.00 in0.0 mm 0.00 in0.0 mm 0.00 in0.0 mm
09:45 AM 53.6°F12.0°C 51.9°F11.1°C 94% Calm Calm -- 29.73 in1006.8 mb 0.00 in0.0 mm 0.00 in0.0 mm 0.00 in0.0 mm
09:50 AM 53.6°F12.0°C 51.9°F11.1°C 94% Calm Calm -- 29.73 in1006.8 mb 0.00 in0.0 mm 0.00 in0.0 mm 0.00 in0.0 mm
09:55 AM 53.7°F12.1°C 52.0°F11.1°C 94% Calm Calm -- 29.73 in1006.8 mb 0.00 in0.0 mm 0.00 in0.0 mm 0.00 in0.0 mm
10:00 AM 53.9°F12.2°C 52.2°F11.2°C 94% Calm Calm -- 29.73 in1006.8 mb 0.00 in0.0 mm 0.00 in0.0 mm 0.00 in0.0 mm
10:05 AM 54.0°F12.2°C 52.3°F11.3°C 94% Calm Calm -- 29.72 in1006.4 mb 0.00 in0.0 mm 0.00 in0.0 mm 0.00 in0.0 mm
10:10 AM 54.2°F12.3°C 52.2°F11.2°C 93% Calm Calm -- 29.72 in1006.4 mb 0.00 in0.0 mm 0.00 in0.0 mm 0.00 in0.0 mm
10:15 AM 54.2°F12.3°C 52.2°F11.2°C 93% Calm Calm -- 29.72 in1006.4 mb 0.00 in0.0 mm 0.00 in0.0 mm 0.00 in0.0 mm
10:20 AM 54.1°F12.3°C 52.1°F11.2°C 93% Calm Calm -- 29.73 in1006.8 mb 0.00 in0.0 mm 0.00 in0.0 mm 0.00 in0.0 mm
10:25 AM 54.2°F12.3°C 52.2°F11.2°C 93% Calm Calm -- 29.72 in1006.4 mb 0.00 in0.0 mm 0.00 in0.0 mm 0.00 in0.0 mm
10:30 AM 54.2°F12.3°C 52.2°F11.2°C 93% Calm Calm -- 29.72 in1006.4 mb 0.00 in0.0 mm 0.00 in0.0 mm 0.00 in0.0 mm
10:35 AM 54.3°F12.4°C 52.3°F11.3°C 93% Calm Calm -- 29.73 in1006.8 mb 0.00 in0.0 mm 0.00 in0.0 mm 0.00 in0.0 mm
10:40 AM 54.3°F12.4°C 52.0°F11.1°C 92% Calm Calm -- 29.73 in1006.8 mb 0.00 in0.0 mm 0.00 in0.0 mm 0.00 in0.0 mm
10:45 AM 54.3°F12.4°C 52.0°F11.1°C 92% Calm Calm -- 29.73 in1006.8 mb 0.01 in0.3 mm 0.12 in3.0 mm 0.01 in0.3 mm
10:50 AM 54.4°F12.4°C 52.1°F11.2°C 92% Calm Calm -- 29.72 in1006.4 mb 0.02 in0.5 mm 0.12 in3.0 mm 0.02 in0.5 mm
10:55 AM 54.5°F12.5°C 52.2°F11.2°C 92% Calm Calm -- 29.72 in1006.4 mb 0.03 in0.8 mm 0.12 in3.0 mm 0.03 in0.8 mm
11:00 AM 54.5°F12.5°C 52.2°F11.2°C 92% Calm Calm -- 29.72 in1006.4 mb 0.04 in1.0 mm 0.01 in0.3 mm 0.04 in1.0 mm
11:05 AM 54.6°F12.6°C 52.3°F11.3°C 92% Calm Calm -- 29.72 in1006.4 mb 0.05 in1.3 mm 0.12 in3.0 mm 0.05 in1.3 mm
11:10 AM 54.7°F12.6°C 52.4°F11.3°C 92% Calm Calm -- 29.72 in1006.4 mb 0.05 in1.3 mm 0.00 in0.0 mm 0.05 in1.3 mm
11:15 AM 54.6°F12.6°C 52.3°F11.3°C 92% Calm Calm -- 29.72 in1006.4 mb 0.05 in1.3 mm 0.00 in0.0 mm 0.05 in1.3 mm
11:20 AM 54.6°F12.6°C 52.3°F11.3°C 92% Calm Calm 3.0 mph4.8 kmh 29.73 in1006.8 mb 0.06 in1.5 mm 0.12 in3.0 mm 0.06 in1.5 mm
11:25 AM 54.5°F12.5°C 52.2°F11.2°C 92% 0.4 mph WSW0.6 kmh WSW 3.0 mph4.8 kmh 29.72 in1006.4 mb 0.06 in1.5 mm 0.00 in0.0 mm 0.06 in1.5 mm
11:30 AM 54.4°F12.4°C 52.1°F11.2°C 92% 0.9 mph WSW1.4 kmh WSW 3.0 mph4.8 kmh 29.71 in1006.1 mb 0.07 in1.8 mm 0.12 in3.0 mm 0.07 in1.8 mm
11:35 AM 54.5°F12.5°C 52.5°F11.4°C 93% 0.6 mph 1.0 kmh -- 29.71 in1006.1 mb 0.08 in2.0 mm 0.12 in3.0 mm 0.08 in2.0 mm
11:40 AM 54.5°F12.5°C 52.5°F11.4°C 93% 0.2 mph 0.3 kmh -- 29.71 in1006.1 mb 0.09 in2.3 mm 0.12 in3.0 mm 0.09 in2.3 mm
11:45 AM 54.6°F12.6°C 52.6°F11.4°C 93% Calm Calm -- 29.71 in1006.1 mb 0.09 in2.3 mm 0.00 in0.0 mm 0.09 in2.3 mm
11:50 AM 54.6°F12.6°C 52.6°F11.4°C 93% Calm Calm -- 29.70 in1005.8 mb 0.09 in2.3 mm 0.00 in0.0 mm 0.10 in2.5 mm
11:55 AM 54.6°F12.6°C 52.6°F11.4°C 93% Calm Calm -- 29.68 in1005.1 mb 0.07 in1.8 mm 0.00 in0.0 mm 0.11 in2.8 mm
12:00 PM 54.5°F12.5°C 52.5°F11.4°C 93% Calm Calm -- 29.69 in1005.4 mb 0.07 in1.8 mm 0.00 in0.0 mm 0.11 in2.8 mm
12:05 PM 54.6°F12.6°C 52.6°F11.4°C 93% Calm Calm -- 29.68 in1005.1 mb 0.06 in1.5 mm 0.00 in0.0 mm 0.11 in2.8 mm
12:10 PM 54.6°F12.6°C 52.6°F11.4°C 93% Calm Calm -- 29.68 in1005.1 mb 0.06 in1.5 mm 0.00 in0.0 mm 0.11 in2.8 mm
12:15 PM 54.6°F12.6°C 52.6°F11.4°C 93% Calm Calm -- 29.68 in1005.1 mb 0.06 in1.5 mm 0.00 in0.0 mm 0.11 in2.8 mm
12:20 PM 54.6°F12.6°C 52.6°F11.4°C 93% Calm Calm -- 29.68 in1005.1 mb 0.06 in1.5 mm 0.00 in0.0 mm 0.11 in2.8 mm
12:25 PM 54.8°F12.7°C 52.8°F11.6°C 93% Calm Calm -- 29.67 in1004.7 mb 0.05 in1.3 mm 0.00 in0.0 mm 0.11 in2.8 mm
12:30 PM 54.9°F12.7°C 52.9°F11.6°C 93% Calm Calm -- 29.67 in1004.7 mb 0.04 in1.0 mm 0.00 in0.0 mm 0.12 in3.0 mm
12:35 PM 55.0°F12.8°C 53.0°F11.7°C 93% Calm Calm -- 29.67 in1004.7 mb 0.04 in1.0 mm 0.00 in0.0 mm 0.12 in3.0 mm
12:40 PM 55.0°F12.8°C 53.0°F11.7°C 93% Calm Calm -- 29.67 in1004.7 mb 0.02 in0.5 mm 0.00 in0.0 mm 0.12 in3.0 mm
12:45 PM 55.2°F12.9°C 53.2°F11.8°C 93% Calm Calm -- 29.67 in1004.7 mb 0.02 in0.5 mm 0.00 in0.0 mm 0.12 in3.0 mm
12:50 PM 55.3°F12.9°C 53.3°F11.8°C 93% Calm Calm -- 29.66 in1004.4 mb 0.02 in0.5 mm 0.00 in0.0 mm 0.12 in3.0 mm
12:55 PM 55.5°F13.1°C 53.5°F11.9°C 93% Calm Calm -- 29.66 in1004.4 mb 0.01 in0.3 mm 0.00 in0.0 mm 0.12 in3.0 mm
01:00 PM 55.6°F13.1°C 53.6°F12.0°C 93% Calm Calm -- 29.66 in1004.4 mb 0.01 in0.3 mm 0.00 in0.0 mm 0.12 in3.0 mm
01:05 PM 55.7°F13.2°C 53.4°F11.9°C 92% Calm Calm -- 29.66 in1004.4 mb 0.01 in0.3 mm 0.00 in0.0 mm 0.12 in3.0 mm
01:10 PM 55.8°F13.2°C 53.5°F11.9°C 92% Calm Calm -- 29.65 in1004.1 mb 0.01 in0.3 mm 0.00 in0.0 mm 0.12 in3.0 mm
01:15 PM 55.9°F13.3°C 53.6°F12.0°C 92% Calm Calm -- 29.65 in1004.1 mb 0.01 in0.3 mm 0.00 in0.0 mm 0.12 in3.0 mm
01:20 PM 55.9°F13.3°C 53.6°F12.0°C 92% Calm Calm -- 29.65 in1004.1 mb 0.02 in0.5 mm 0.12 in3.0 mm 0.13 in3.3 mm
01:25 PM 56.0°F13.3°C 53.7°F12.1°C 92% Calm Calm -- 29.64 in1003.7 mb 0.02 in0.5 mm 0.00 in0.0 mm 0.13 in3.3 mm
01:30 PM 56.0°F13.3°C 53.7°F12.1°C 92% Calm Calm -- 29.64 in1003.7 mb 0.01 in0.3 mm 0.00 in0.0 mm 0.13 in3.3 mm
01:35 PM 56.0°F13.3°C 54.0°F12.2°C 93% Calm Calm -- 29.64 in1003.7 mb 0.01 in0.3 mm 0.00 in0.0 mm 0.13 in3.3 mm
01:40 PM 56.0°F13.3°C 54.0°F12.2°C 93% Calm Calm -- 29.64 in1003.7 mb 0.01 in0.3 mm 0.00 in0.0 mm 0.13 in3.3 mm
01:45 PM 56.1°F13.4°C 54.1°F12.3°C 93% Calm Calm -- 29.63 in1003.4 mb 0.01 in0.3 mm 0.00 in0.0 mm 0.13 in3.3 mm
01:50 PM 56.0°F13.3°C 54.0°F12.2°C 93% Calm Calm -- 29.64 in1003.7 mb 0.01 in0.3 mm 0.00 in0.0 mm 0.13 in3.3 mm
01:55 PM 56.0°F13.3°C 54.0°F12.2°C 93% Calm Calm -- 29.63 in1003.4 mb 0.01 in0.3 mm 0.00 in0.0 mm 0.13 in3.3 mm
02:00 PM 56.0°F13.3°C 54.0°F12.2°C 93% Calm Calm -- 29.63 in1003.4 mb 0.01 in0.3 mm 0.00 in0.0 mm 0.13 in3.3 mm
02:05 PM 56.0°F13.3°C 54.0°F12.2°C 93% Calm Calm -- 29.62 in1003.0 mb 0.01 in0.3 mm 0.00 in0.0 mm 0.13 in3.3 mm
02:10 PM 56.0°F13.3°C 54.0°F12.2°C 93% Calm Calm -- 29.62 in1003.0 mb 0.01 in0.3 mm 0.00 in0.0 mm 0.13 in3.3 mm
02:15 PM 56.0°F13.3°C 54.0°F12.2°C 93% Calm Calm -- 29.62 in1003.0 mb 0.01 in0.3 mm 0.00 in0.0 mm 0.13 in3.3 mm
02:20 PM 56.1°F13.4°C 54.1°F12.3°C 93% Calm Calm -- 29.61 in1002.7 mb 0.00 in0.0 mm 0.00 in0.0 mm 0.13 in3.3 mm
02:25 PM 56.1°F13.4°C 54.1°F12.3°C 93% Calm Calm -- 29.62 in1003.0 mb 0.01 in0.3 mm 0.12 in3.0 mm 0.13 in3.3 mm
02:30 PM 56.0°F13.3°C 54.0°F12.2°C 93% Calm Calm -- 29.61 in1002.7 mb 0.02 in0.5 mm 0.12 in3.0 mm 0.14 in3.6 mm
02:35 PM 56.0°F13.3°C 54.3°F12.4°C 94% Calm Calm -- 29.60 in1002.4 mb 0.02 in0.5 mm 0.00 in0.0 mm 0.14 in3.6 mm
02:40 PM 56.1°F13.4°C 54.4°F12.4°C 94% Calm Calm -- 29.60 in1002.4 mb 0.02 in0.5 mm 0.00 in0.0 mm 0.15 in3.8 mm
02:45 PM 56.3°F13.5°C 54.6°F12.6°C 94% 0.2 mph SSW0.3 kmh SSW 6.0 mph9.7 kmh 29.60 in1002.4 mb 0.02 in0.5 mm 0.00 in0.0 mm 0.15 in3.8 mm
02:50 PM 56.4°F13.6°C 54.4°F12.4°C 93% 0.6 mph SW1.0 kmh SW 6.0 mph9.7 kmh 29.60 in1002.4 mb 0.02 in0.5 mm 0.00 in0.0 mm 0.15 in3.8 mm
02:55 PM 56.5°F13.6°C 54.5°F12.5°C 93% 1.2 mph SW1.9 kmh SW 5.0 mph8.0 kmh 29.60 in1002.4 mb 0.02 in0.5 mm 0.00 in0.0 mm 0.15 in3.8 mm
03:00 PM 56.5°F13.6°C 54.5°F12.5°C 93% 1.4 mph SW2.3 kmh SW 7.0 mph11.3 kmh 29.59 in1002.0 mb 0.02 in0.5 mm 0.00 in0.0 mm 0.15 in3.8 mm
03:05 PM 56.6°F13.7°C 54.6°F12.6°C 93% 2.0 mph SW3.2 kmh SW 8.0 mph12.9 kmh 29.60 in1002.4 mb 0.02 in0.5 mm 0.00 in0.0 mm 0.15 in3.8 mm
03:10 PM 56.7°F13.7°C 54.7°F12.6°C 93% 2.7 mph SW4.3 kmh SW 8.0 mph12.9 kmh 29.59 in1002.0 mb 0.03 in0.8 mm 0.12 in3.0 mm 0.16 in4.1 mm
03:15 PM 56.7°F13.7°C 54.4°F12.4°C 92% 2.7 mph SW4.3 kmh SW 8.0 mph12.9 kmh 29.60 in1002.4 mb 0.05 in1.3 mm 0.24 in6.1 mm 0.17 in4.3 mm
03:20 PM 56.7°F13.7°C 54.4°F12.4°C 92% 2.7 mph SW4.3 kmh SW 8.0 mph12.9 kmh 29.59 in1002.0 mb 0.06 in1.5 mm 0.12 in3.0 mm 0.19 in4.8 mm
03:25 PM 56.7°F13.7°C 54.4°F12.4°C 92% 2.9 mph SSW4.7 kmh SSW 10.0 mph16.1 kmh 29.59 in1002.0 mb 0.07 in1.8 mm 0.12 in3.0 mm 0.20 in5.1 mm
03:30 PM 56.7°F13.7°C 54.4°F12.4°C 92% 2.5 mph SSW4.0 kmh SSW 12.0 mph19.3 kmh 29.59 in1002.0 mb 0.09 in2.3 mm 0.24 in6.1 mm 0.23 in5.8 mm
03:35 PM 56.6°F13.7°C 54.3°F12.4°C 92% 2.1 mph SW3.4 kmh SW 12.0 mph19.3 kmh 29.60 in1002.4 mb 0.09 in2.3 mm 0.00 in0.0 mm 0.24 in6.1 mm
03:40 PM 56.6°F13.7°C 54.3°F12.4°C 92% 1.8 mph WSW2.9 kmh WSW 7.0 mph11.3 kmh 29.58 in1001.7 mb 0.12 in3.0 mm 0.36 in9.1 mm 0.27 in6.9 mm
03:45 PM 56.6°F13.7°C 54.3°F12.4°C 92% 1.3 mph NE2.1 kmh NE 5.0 mph8.0 kmh 29.58 in1001.7 mb 0.13 in3.3 mm 0.12 in3.0 mm 0.28 in7.1 mm
03:50 PM 56.5°F13.6°C 54.2°F12.3°C 92% 1.0 mph NE1.6 kmh NE 5.0 mph8.0 kmh 29.57 in1001.4 mb 0.15 in3.8 mm 0.24 in6.1 mm 0.30 in7.6 mm
03:55 PM 56.4°F13.6°C 54.1°F12.3°C 92% 1.0 mph NE1.6 kmh NE 4.0 mph6.4 kmh 29.57 in1001.4 mb 0.16 in4.1 mm 0.12 in3.0 mm 0.31 in7.9 mm
04:00 PM 56.4°F13.6°C 54.1°F12.3°C 92% 1.0 mph W1.6 kmh W 8.0 mph12.9 kmh 29.58 in1001.7 mb 0.17 in4.3 mm 0.01 in0.3 mm 0.31 in7.9 mm
04:05 PM 56.5°F13.6°C 54.2°F12.3°C 92% 1.3 mph SW2.1 kmh SW 9.0 mph14.5 kmh 29.59 in1002.0 mb 0.18 in4.6 mm 0.12 in3.0 mm 0.33 in8.4 mm
04:10 PM 56.5°F13.6°C 54.2°F12.3°C 92% 2.4 mph SSW3.9 kmh SSW 11.0 mph17.7 kmh 29.58 in1001.7 mb 0.46 in11.7 mm 3.36 in85.3 mm 0.62 in15.7 mm
04:15 PM 56.3°F13.5°C 54.3°F12.4°C 93% 3.9 mph SSW6.3 kmh SSW 14.0 mph22.5 kmh 29.59 in1002.0 mb 0.59 in15.0 mm 1.56 in39.6 mm 0.76 in19.3 mm
04:20 PM 56.3°F13.5°C 54.3°F12.4°C 93% 4.8 mph SSW7.7 kmh SSW 14.0 mph22.5 kmh 29.60 in1002.4 mb 0.66 in16.8 mm 0.84 in21.3 mm 0.85 in21.6 mm
04:25 PM 56.2°F13.4°C 54.2°F12.3°C 93% 4.8 mph SSW7.7 kmh SSW 9.0 mph14.5 kmh 29.60 in1002.4 mb 0.67 in17.0 mm 0.12 in3.0 mm 0.87 in22.1 mm
04:30 PM 56.2°F13.4°C 54.2°F12.3°C 93% 3.0 mph SW4.8 kmh SW 6.0 mph9.7 kmh 29.60 in1002.4 mb 0.65 in16.5 mm 0.00 in0.0 mm 0.88 in22.4 mm
04:35 PM 56.4°F13.6°C 54.4°F12.4°C 93% 1.9 mph SW3.1 kmh SW 14.0 mph22.5 kmh 29.59 in1002.0 mb 0.64 in16.3 mm 0.00 in0.0 mm 0.88 in22.4 mm
04:40 PM 56.9°F13.8°C 54.9°F12.7°C 93% 3.4 mph SW5.5 kmh SW 23.0 mph37.0 kmh 29.59 in1002.0 mb 0.61 in15.5 mm 0.00 in0.0 mm 0.88 in22.4 mm
04:45 PM 57.1°F13.9°C 54.8°F12.7°C 92% 5.8 mph SW9.3 kmh SW 23.0 mph37.0 kmh 29.59 in1002.0 mb 0.61 in15.5 mm 0.00 in0.0 mm 0.88 in22.4 mm
04:50 PM 57.1°F13.9°C 54.8°F12.7°C 92% 6.7 mph SSW10.8 kmh SSW 13.0 mph20.9 kmh 29.59 in1002.0 mb 0.58 in14.7 mm 0.00 in0.0 mm 0.88 in22.4 mm
04:55 PM 57.0°F13.9°C 54.7°F12.6°C 92% 5.6 mph SSW9.0 kmh SSW 10.0 mph16.1 kmh 29.59 in1002.0 mb 0.57 in14.5 mm 0.00 in0.0 mm 0.88 in22.4 mm
05:00 PM 57.0°F13.9°C 54.7°F12.6°C 92% 4.4 mph SW7.1 kmh SW 10.0 mph16.1 kmh 29.60 in1002.4 mb 0.57 in14.5 mm 0.00 in0.0 mm 0.89 in22.6 mm
05:05 PM 56.9°F13.8°C 54.6°F12.6°C 92% 3.1 mph SW5.0 kmh SW 6.0 mph9.7 kmh 29.61 in1002.7 mb 0.59 in15.0 mm 0.24 in6.1 mm 0.92 in23.4 mm
05:10 PM 56.9°F13.8°C 54.9°F12.7°C 93% 1.6 mph WSW2.6 kmh WSW 8.0 mph12.9 kmh 29.61 in1002.7 mb 0.35 in8.9 mm 0.00 in0.0 mm 1.01 in25.7 mm
05:15 PM 57.0°F13.9°C 55.0°F12.8°C 93% 1.4 mph WSW2.3 kmh WSW 8.0 mph12.9 kmh 29.61 in1002.7 mb 0.31 in7.9 mm 0.00 in0.0 mm 1.10 in27.9 mm
05:20 PM 57.3°F14.1°C 55.3°F12.9°C 93% 2.4 mph SW3.9 kmh SW 8.0 mph12.9 kmh 29.61 in1002.7 mb 0.26 in6.6 mm 0.00 in0.0 mm 1.11 in28.2 mm
05:25 PM 57.5°F14.2°C 55.5°F13.1°C 93% 3.7 mph SW6.0 kmh SW 11.0 mph17.7 kmh 29.62 in1003.0 mb 0.24 in6.1 mm 0.00 in0.0 mm 1.11 in28.2 mm
05:30 PM 57.6°F14.2°C 55.6°F13.1°C 93% 4.2 mph WSW6.8 kmh WSW 11.0 mph17.7 kmh 29.62 in1003.0 mb 0.23 in5.8 mm 0.00 in0.0 mm 1.11 in28.2 mm
05:35 PM 57.8°F14.3°C 55.5°F13.1°C 92% 4.1 mph WSW6.6 kmh WSW 8.0 mph12.9 kmh 29.62 in1003.0 mb 0.23 in5.8 mm 0.00 in0.0 mm 1.11 in28.2 mm
05:40 PM 57.9°F14.4°C 55.6°F13.1°C 92% 4.0 mph SW6.4 kmh SW 10.0 mph16.1 kmh 29.62 in1003.0 mb 0.23 in5.8 mm 0.00 in0.0 mm 1.11 in28.2 mm
05:45 PM 57.9°F14.4°C 55.6°F13.1°C 92% 3.6 mph SW5.8 kmh SW 10.0 mph16.1 kmh 29.62 in1003.0 mb 0.23 in5.8 mm 0.00 in0.0 mm 1.11 in28.2 mm
05:50 PM 57.9°F14.4°C 55.6°F13.1°C 92% 2.9 mph SW4.7 kmh SW 7.0 mph11.3 kmh 29.62 in1003.0 mb 0.23 in5.8 mm 0.00 in0.0 mm 1.11 in28.2 mm
05:55 PM 57.9°F14.4°C 55.6°F13.1°C 92% 2.3 mph SW3.7 kmh SW 7.0 mph11.3 kmh 29.62 in1003.0 mb 0.22 in5.6 mm 0.00 in0.0 mm 1.11 in28.2 mm
06:00 PM 57.8°F14.3°C 55.5°F13.1°C 92% 1.5 mph SW2.4 kmh SW 5.0 mph8.0 kmh 29.62 in1003.0 mb 0.21 in5.3 mm 0.00 in0.0 mm 1.11 in28.2 mm
06:05 PM 57.7°F14.3°C 55.4°F13.0°C 92% 1.5 mph SW2.4 kmh SW 7.0 mph11.3 kmh 29.61 in1002.7 mb 0.19 in4.8 mm 0.00 in0.0 mm 1.11 in28.2 mm
06:10 PM 57.6°F14.2°C 55.3°F12.9°C 92% 2.3 mph SW3.7 kmh SW 7.0 mph11.3 kmh 29.62 in1003.0 mb 0.05 in1.3 mm 0.00 in0.0 mm 1.11 in28.2 mm
06:15 PM 57.6°F14.2°C 55.3°F12.9°C 92% 2.7 mph SW4.3 kmh SW 6.0 mph9.7 kmh 29.62 in1003.0 mb 0.01 in0.3 mm 0.00 in0.0 mm 1.11 in28.2 mm
06:20 PM 57.5°F14.2°C 55.2°F12.9°C 92% 2.0 mph WSW3.2 kmh WSW 4.0 mph6.4 kmh 29.63 in1003.4 mb 0.00 in0.0 mm 0.00 in0.0 mm 1.11 in28.2 mm
06:25 PM 57.4°F14.1°C 55.1°F12.8°C 92% 0.7 mph 1.1 kmh -- 29.63 in1003.4 mb 0.00 in0.0 mm 0.00 in0.0 mm 1.11 in28.2 mm
06:30 PM 57.4°F14.1°C 55.4°F13.0°C 93% 0.1 mph 0.2 kmh -- 29.63 in1003.4 mb 0.00 in0.0 mm 0.00 in0.0 mm 1.11 in28.2 mm
06:35 PM 57.4°F14.1°C 55.4°F13.0°C 93% Calm Calm -- 29.63 in1003.4 mb 0.00 in0.0 mm 0.00 in0.0 mm 1.11 in28.2 mm
06:40 PM 57.5°F14.2°C 55.5°F13.1°C 93% Calm Calm -- 29.63 in1003.4 mb 0.00 in0.0 mm 0.00 in0.0 mm 1.11 in28.2 mm
06:45 PM 57.5°F14.2°C 55.5°F13.1°C 93% Calm Calm -- 29.63 in1003.4 mb 0.00 in0.0 mm 0.00 in0.0 mm 1.11 in28.2 mm
06:50 PM 57.5°F14.2°C 55.5°F13.1°C 93% Calm Calm -- 29.63 in1003.4 mb 0.00 in0.0 mm 0.00 in0.0 mm 1.11 in28.2 mm
06:55 PM 57.4°F14.1°C 55.4°F13.0°C 93% Calm Calm -- 29.63 in1003.4 mb 0.00 in0.0 mm 0.00 in0.0 mm 1.11 in28.2 mm
07:00 PM 57.4°F14.1°C 55.4°F13.0°C 93% Calm Calm 6.0 mph9.7 kmh 29.63 in1003.4 mb 0.00 in0.0 mm 0.00 in0.0 mm 1.11 in28.2 mm
07:05 PM 57.4°F14.1°C 55.4°F13.0°C 93% 0.3 mph SW0.5 kmh SW 6.0 mph9.7 kmh 29.63 in1003.4 mb 0.00 in0.0 mm 0.00 in0.0 mm 1.11 in28.2 mm
07:10 PM 57.5°F14.2°C 55.5°F13.1°C 93% 0.8 mph SW1.3 kmh SW 7.0 mph11.3 kmh 29.64 in1003.7 mb 0.00 in0.0 mm 0.00 in0.0 mm 1.11 in28.2 mm
07:15 PM 57.5°F14.2°C 55.2°F12.9°C 92% 1.5 mph SW2.4 kmh SW 7.0 mph11.3 kmh 29.64 in1003.7 mb 0.00 in0.0 mm 0.00 in0.0 mm 1.11 in28.2 mm
07:20 PM 57.4°F14.1°C 55.1°F12.8°C 92% 1.9 mph SW3.1 kmh SW 5.0 mph8.0 kmh 29.64 in1003.7 mb 0.00 in0.0 mm 0.00 in0.0 mm 1.11 in28.2 mm
07:25 PM 57.2°F14.0°C 54.9°F12.7°C 92% 1.5 mph WSW2.4 kmh WSW 4.0 mph6.4 kmh 29.64 in1003.7 mb 0.00 in0.0 mm 0.00 in0.0 mm 1.11 in28.2 mm
07:30 PM 57.1°F13.9°C 55.1°F12.8°C 93% 1.0 mph SW1.6 kmh SW 7.0 mph11.3 kmh 29.65 in1004.1 mb 0.00 in0.0 mm 0.00 in0.0 mm 1.11 in28.2 mm
07:35 PM 57.1°F13.9°C 54.8°F12.7°C 92% 1.0 mph SW1.6 kmh SW 7.0 mph11.3 kmh 29.65 in1004.1 mb 0.00 in0.0 mm 0.00 in0.0 mm 1.11 in28.2 mm
07:40 PM 57.0°F13.9°C 54.7°F12.6°C 92% 1.0 mph SW1.6 kmh SW 8.0 mph12.9 kmh 29.65 in1004.1 mb 0.00 in0.0 mm 0.00 in0.0 mm 1.11 in28.2 mm
07:45 PM 57.2°F14.0°C 54.3°F12.4°C 90% 1.7 mph SW2.7 kmh SW 12.0 mph19.3 kmh 29.64 in1003.7 mb 0.00 in0.0 mm 0.00 in0.0 mm 1.11 in28.2 mm
07:50 PM 57.5°F14.2°C 54.3°F12.4°C 89% 3.4 mph SW5.5 kmh SW 12.0 mph19.3 kmh 29.65 in1004.1 mb 0.00 in0.0 mm 0.00 in0.0 mm 1.11 in28.2 mm
07:55 PM 58.0°F14.4°C 54.2°F12.3°C 87% 5.0 mph SW8.0 kmh SW 13.0 mph20.9 kmh 29.64 in1003.7 mb 0.00 in0.0 mm 0.00 in0.0 mm 1.11 in28.2 mm
08:00 PM 58.0°F14.4°C 53.8°F12.1°C 86% 5.8 mph SW9.3 kmh SW 13.0 mph20.9 kmh 29.65 in1004.1 mb 0.00 in0.0 mm 0.00 in0.0 mm 1.11 in28.2 mm
08:05 PM 58.0°F14.4°C 53.8°F12.1°C 86% 5.3 mph WSW8.5 kmh WSW 8.0 mph12.9 kmh 29.65 in1004.1 mb 0.00 in0.0 mm 0.00 in0.0 mm 1.11 in28.2 mm
08:10 PM 57.9°F14.4°C 53.7°F12.1°C 86% 3.9 mph WSW6.3 kmh WSW 7.0 mph11.3 kmh 29.65 in1004.1 mb 0.00 in0.0 mm 0.00 in0.0 mm 1.11 in28.2 mm
08:15 PM 57.8°F14.3°C 53.6°F12.0°C 86% 3.0 mph SW4.8 kmh SW 6.0 mph9.7 kmh 29.65 in1004.1 mb 0.00 in0.0 mm 0.00 in0.0 mm 1.11 in28.2 mm
08:20 PM 57.7°F14.3°C 53.9°F12.2°C 87% 2.5 mph SW4.0 kmh SW 12.0 mph19.3 kmh 29.65 in1004.1 mb 0.00 in0.0 mm 0.00 in0.0 mm 1.11 in28.2 mm
08:25 PM 57.9°F14.4°C 53.7°F12.1°C 86% 2.5 mph SW4.0 kmh SW 12.0 mph19.3 kmh 29.65 in1004.1 mb 0.00 in0.0 mm 0.00 in0.0 mm 1.11 in28.2 mm
08:30 PM 57.8°F14.3°C 53.6°F12.0°C 86% 3.4 mph SW5.5 kmh SW 10.0 mph16.1 kmh 29.65 in1004.1 mb 0.00 in0.0 mm 0.00 in0.0 mm 1.11 in28.2 mm
08:35 PM 57.8°F14.3°C 53.6°F12.0°C 86% 3.1 mph SW5.0 kmh SW 9.0 mph14.5 kmh 29.65 in1004.1 mb 0.00 in0.0 mm 0.00 in0.0 mm 1.11 in28.2 mm
08:40 PM 58.0°F14.4°C 53.8°F12.1°C 86% 2.6 mph SW4.2 kmh SW 10.0 mph16.1 kmh 29.65 in1004.1 mb 0.00 in0.0 mm 0.00 in0.0 mm 1.11 in28.2 mm
08:45 PM 58.1°F14.5°C 53.6°F12.0°C 85% 3.8 mph SW6.1 kmh SW 12.0 mph19.3 kmh 29.65 in1004.1 mb 0.00 in0.0 mm 0.00 in0.0 mm 1.11 in28.2 mm
08:50 PM 58.2°F14.6°C 53.7°F12.1°C 85% 5.4 mph SW8.7 kmh SW 12.0 mph19.3 kmh 29.65 in1004.1 mb 0.00 in0.0 mm 0.00 in0.0 mm 1.11 in28.2 mm
08:55 PM 58.2°F14.6°C 53.7°F12.1°C 85% 5.6 mph SW9.0 kmh SW 9.0 mph14.5 kmh 29.66 in1004.4 mb 0.00 in0.0 mm 0.00 in0.0 mm 1.11 in28.2 mm
09:00 PM 58.2°F14.6°C 53.7°F12.1°C 85% 4.8 mph SW7.7 kmh SW 11.0 mph17.7 kmh 29.66 in1004.4 mb 0.00 in0.0 mm 0.00 in0.0 mm 1.11 in28.2 mm
09:05 PM 58.0°F14.4°C 53.5°F11.9°C 85% 4.2 mph SW6.8 kmh SW 11.0 mph17.7 kmh 29.66 in1004.4 mb 0.00 in0.0 mm 0.00 in0.0 mm 1.11 in28.2 mm
09:10 PM 58.1°F14.5°C 53.6°F12.0°C 85% 4.0 mph SW6.4 kmh SW 9.0 mph14.5 kmh 29.66 in1004.4 mb 0.00 in0.0 mm 0.00 in0.0 mm 1.11 in28.2 mm
09:15 PM 58.0°F14.4°C 53.5°F11.9°C 85% 4.2 mph SW6.8 kmh SW 11.0 mph17.7 kmh 29.66 in1004.4 mb 0.00 in0.0 mm 0.00 in0.0 mm 1.11 in28.2 mm
09:20 PM 58.0°F14.4°C 53.5°F11.9°C 85% 4.5 mph SW7.2 kmh SW 11.0 mph17.7 kmh 29.66 in1004.4 mb 0.00 in0.0 mm 0.00 in0.0 mm 1.11 in28.2 mm
09:25 PM 58.0°F14.4°C 53.2°F11.8°C 84% 4.2 mph SW6.8 kmh SW 9.0 mph14.5 kmh 29.66 in1004.4 mb 0.00 in0.0 mm 0.00 in0.0 mm 1.11 in28.2 mm
09:30 PM 57.9°F14.4°C 53.1°F11.7°C 84% 3.1 mph SW5.0 kmh SW 7.0 mph11.3 kmh 29.66 in1004.4 mb 0.00 in0.0 mm 0.00 in0.0 mm 1.11 in28.2 mm
09:35 PM 57.7°F14.3°C 53.2°F11.8°C 85% 2.3 mph SW3.7 kmh SW 6.0 mph9.7 kmh 29.66 in1004.4 mb 0.00 in0.0 mm 0.00 in0.0 mm 1.11 in28.2 mm
09:40 PM 57.3°F14.1°C 53.1°F11.7°C 86% 1.9 mph SSW3.1 kmh SSW 5.0 mph8.0 kmh 29.66 in1004.4 mb 0.00 in0.0 mm 0.00 in0.0 mm 1.11 in28.2 mm
09:45 PM 56.8°F13.8°C 53.0°F11.7°C 87% 1.5 mph SW2.4 kmh SW 6.0 mph9.7 kmh 29.66 in1004.4 mb 0.00 in0.0 mm 0.00 in0.0 mm 1.11 in28.2 mm
09:50 PM 56.5°F13.6°C 53.0°F11.7°C 88% 1.8 mph SSW2.9 kmh SSW 8.0 mph12.9 kmh 29.67 in1004.7 mb 0.00 in0.0 mm 0.00 in0.0 mm 1.11 in28.2 mm
09:55 PM 56.4°F13.6°C 52.9°F11.6°C 88% 2.6 mph SSW4.2 kmh SSW 8.0 mph12.9 kmh 29.67 in1004.7 mb 0.00 in0.0 mm 0.00 in0.0 mm 1.11 in28.2 mm
10:00 PM 56.3°F13.5°C 53.1°F11.7°C 89% 3.0 mph SSW4.8 kmh SSW 7.0 mph11.3 kmh 29.67 in1004.7 mb 0.00 in0.0 mm 0.00 in0.0 mm 1.11 in28.2 mm
10:05 PM 56.2°F13.4°C 53.0°F11.7°C 89% 2.6 mph SSW4.2 kmh SSW 6.0 mph9.7 kmh 29.67 in1004.7 mb 0.00 in0.0 mm 0.00 in0.0 mm 1.11 in28.2 mm
10:10 PM 56.1°F13.4°C 52.9°F11.6°C 89% 2.2 mph SSW3.5 kmh SSW 6.0 mph9.7 kmh 29.67 in1004.7 mb 0.00 in0.0 mm 0.00 in0.0 mm 1.11 in28.2 mm
10:15 PM 56.0°F13.3°C 52.8°F11.6°C 89% 2.6 mph SSW4.2 kmh SSW 7.0 mph11.3 kmh 29.67 in1004.7 mb 0.00 in0.0 mm 0.00 in0.0 mm 1.11 in28.2 mm
10:20 PM 56.0°F13.3°C 52.8°F11.6°C 89% 3.0 mph SSW4.8 kmh SSW 13.0 mph20.9 kmh 29.67 in1004.7 mb 0.00 in0.0 mm 0.00 in0.0 mm 1.11 in28.2 mm
10:25 PM 56.0°F13.3°C 52.5°F11.4°C 88% 3.1 mph SSW5.0 kmh SSW 13.0 mph20.9 kmh 29.67 in1004.7 mb 0.00 in0.0 mm 0.00 in0.0 mm 1.11 in28.2 mm
10:30 PM 56.0°F13.3°C 52.5°F11.4°C 88% 3.6 mph SSW5.8 kmh SSW 9.0 mph14.5 kmh 29.67 in1004.7 mb 0.00 in0.0 mm 0.00 in0.0 mm 1.11 in28.2 mm
10:35 PM 56.0°F13.3°C 52.5°F11.4°C 88% 3.4 mph SW5.5 kmh SW 7.0 mph11.3 kmh 29.67 in1004.7 mb 0.00 in0.0 mm 0.00 in0.0 mm 1.11 in28.2 mm
10:40 PM 56.0°F13.3°C 52.5°F11.4°C 88% 3.0 mph SW4.8 kmh SW 7.0 mph11.3 kmh 29.67 in1004.7 mb 0.00 in0.0 mm 0.00 in0.0 mm 1.11 in28.2 mm
10:45 PM 56.0°F13.3°C 52.5°F11.4°C 88% 3.0 mph SSW4.8 kmh SSW 7.0 mph11.3 kmh 29.68 in1005.1 mb 0.00 in0.0 mm 0.00 in0.0 mm 1.11 in28.2 mm
10:50 PM 56.0°F13.3°C 52.5°F11.4°C 88% 3.2 mph SSW5.1 kmh SSW 7.0 mph11.3 kmh 29.68 in1005.1 mb 0.00 in0.0 mm 0.00 in0.0 mm 1.11 in28.2 mm
10:55 PM 55.9°F13.3°C 52.4°F11.3°C 88% 3.2 mph SSW5.1 kmh SSW 8.0 mph12.9 kmh 29.68 in1005.1 mb 0.00 in0.0 mm 0.00 in0.0 mm 1.11 in28.2 mm
11:00 PM 55.8°F13.2°C 52.3°F11.3°C 88% 3.1 mph SSW5.0 kmh SSW 8.0 mph12.9 kmh 29.68 in1005.1 mb 0.00 in0.0 mm 0.00 in0.0 mm 1.11 in28.2 mm
11:05 PM 55.8°F13.2°C 52.3°F11.3°C 88% 3.2 mph SSW5.1 kmh SSW 8.0 mph12.9 kmh 29.68 in1005.1 mb 0.00 in0.0 mm 0.00 in0.0 mm 1.11 in28.2 mm
11:10 PM 55.8°F13.2°C 52.3°F11.3°C 88% 3.1 mph SSW5.0 kmh SSW 6.0 mph9.7 kmh 29.68 in1005.1 mb 0.00 in0.0 mm 0.00 in0.0 mm 1.11 in28.2 mm
11:15 PM 55.8°F13.2°C 52.3°F11.3°C 88% 2.5 mph SW4.0 kmh SW 6.0 mph9.7 kmh 29.68 in1005.1 mb 0.00 in0.0 mm 0.00 in0.0 mm 1.11 in28.2 mm
11:20 PM 55.8°F13.2°C 52.0°F11.1°C 87% 2.0 mph SSW3.2 kmh SSW 7.0 mph11.3 kmh 29.67 in1004.7 mb 0.00 in0.0 mm 0.00 in0.0 mm 1.11 in28.2 mm
11:25 PM 56.0°F13.3°C 52.2°F11.2°C 87% 2.4 mph SSW3.9 kmh SSW 7.0 mph11.3 kmh 29.67 in1004.7 mb 0.00 in0.0 mm 0.00 in0.0 mm 1.11 in28.2 mm
11:30 PM 56.1°F13.4°C 52.3°F11.3°C 87% 2.9 mph SSW4.7 kmh SSW 8.0 mph12.9 kmh 29.68 in1005.1 mb 0.00 in0.0 mm 0.00 in0.0 mm 1.11 in28.2 mm
11:35 PM 56.1°F13.4°C 52.0°F11.1°C 86% 3.0 mph SSW4.8 kmh SSW 8.0 mph12.9 kmh 29.68 in1005.1 mb 0.00 in0.0 mm 0.00 in0.0 mm 1.11 in28.2 mm
11:40 PM 56.0°F13.3°C 52.2°F11.2°C 87% 3.2 mph SSW5.1 kmh SSW 9.0 mph14.5 kmh 29.68 in1005.1 mb 0.00 in0.0 mm 0.00 in0.0 mm 1.11 in28.2 mm
11:45 PM 56.0°F13.3°C 52.2°F11.2°C 87% 3.3 mph SSW5.3 kmh SSW 9.0 mph14.5 kmh 29.68 in1005.1 mb 0.00 in0.0 mm 0.00 in0.0 mm 1.11 in28.2 mm
11:50 PM 56.1°F13.4°C 52.3°F11.3°C 87% 3.6 mph SSW5.8 kmh SSW 8.0 mph12.9 kmh 29.68 in1005.1 mb 0.00 in0.0 mm 0.00 in0.0 mm 1.11 in28.2 mm
11:55 PM 56.2°F13.4°C 52.1°F11.2°C 86% 4.0 mph SW6.4 kmh SW 8.0 mph12.9 kmh 29.68 in1005.1 mb 0.00 in0.0 mm 0.00 in0.0 mm 1.11 in28.2 mm